createdAt,value
2018-11-12T00:01:54.905Z,88.20
2018-11-12T00:04:27.798Z,88.20
2018-11-12T00:07:00.550Z,88.20
2018-11-12T00:09:33.071Z,88.20
2018-11-12T00:12:04.949Z,88.10
2018-11-12T00:14:36.813Z,88.20
2018-11-12T00:17:08.763Z,88.00
2018-11-12T00:19:40.633Z,88.00
2018-11-12T00:22:12.632Z,88.20
2018-11-12T00:24:44.337Z,88.20
2018-11-12T00:27:16.166Z,88.00
2018-11-12T00:29:47.977Z,88.10
2018-11-12T00:32:20.061Z,88.00
2018-11-12T00:34:51.851Z,88.00
2018-11-12T00:37:23.697Z,88.00
2018-11-12T00:39:55.679Z,87.90
2018-11-12T00:42:27.633Z,88.00
2018-11-12T00:44:59.449Z,87.90
2018-11-12T00:47:31.265Z,88.00
2018-11-12T00:50:03.345Z,87.90
2018-11-12T00:52:35.241Z,88.00
2018-11-12T00:55:07.813Z,87.90
2018-11-12T00:57:40.018Z,88.60
2018-11-12T01:00:14.541Z,87.80
2018-11-12T01:02:48.528Z,87.80
2018-11-12T01:05:20.825Z,87.80
2018-11-12T01:07:52.754Z,87.70
2018-11-12T01:10:24.729Z,87.80
2018-11-12T01:12:56.683Z,87.80
2018-11-12T01:15:28.805Z,87.70
2018-11-12T01:18:00.593Z,87.70
2018-11-12T01:20:32.647Z,87.70
2018-11-12T01:23:04.425Z,87.70
2018-11-12T01:25:36.322Z,87.60
2018-11-12T01:28:08.281Z,87.60
2018-11-12T01:30:40.181Z,87.60
2018-11-12T01:33:12.172Z,87.60
2018-11-12T01:35:44.138Z,87.60
2018-11-12T01:38:16.109Z,87.60
2018-11-12T01:40:48.052Z,87.60
2018-11-12T01:43:20.142Z,87.60
2018-11-12T01:45:52.070Z,87.70
2018-11-12T01:48:23.888Z,87.60
2018-11-12T01:50:55.850Z,87.60
2018-11-12T01:53:27.862Z,87.60
2018-11-12T01:55:59.971Z,87.60
2018-11-12T01:58:31.780Z,88.60
2018-11-12T02:01:03.761Z,88.90
2018-11-12T02:03:35.710Z,88.60
2018-11-12T02:06:07.790Z,88.60
2018-11-12T02:08:39.772Z,88.60
2018-11-12T02:11:12.069Z,88.60
2018-11-12T02:13:44.248Z,88.60
2018-11-12T02:16:16.355Z,88.70
2018-11-12T02:18:48.419Z,88.60
2018-11-12T02:21:20.376Z,88.70
2018-11-12T02:23:52.547Z,88.70
2018-11-12T02:26:24.464Z,88.60
2018-11-12T02:28:56.202Z,88.70
2018-11-12T02:31:28.444Z,88.60
2018-11-12T02:34:00.297Z,88.50
2018-11-12T02:36:32.349Z,88.50
2018-11-12T02:39:05.973Z,88.50
2018-11-12T02:41:37.942Z,88.50
2018-11-12T02:44:10.200Z,88.50
2018-11-12T02:46:42.913Z,88.50
2018-11-12T02:49:15.584Z,88.40
2018-11-12T02:51:47.393Z,88.70
2018-11-12T02:54:19.372Z,88.40
2018-11-12T02:56:51.260Z,88.40
2018-11-12T02:59:23.365Z,88.40
2018-11-12T03:02:15.702Z,88.40
2018-11-12T03:05:00.109Z,88.40
2018-11-12T03:07:37.447Z,88.30
2018-11-12T03:10:12.042Z,88.30
2018-11-12T03:12:43.918Z,88.30
2018-11-12T03:15:17.023Z,88.20
2018-11-12T03:17:49.886Z,88.30
2018-11-12T03:20:23.794Z,88.30
2018-11-12T03:22:55.828Z,88.30
2018-11-12T03:25:38.519Z,88.30
2018-11-12T03:28:10.338Z,88.20
2018-11-12T03:30:42.243Z,88.10
2018-11-12T03:33:20.671Z,88.10
2018-11-12T03:35:54.384Z,88.10
2018-11-12T03:38:26.201Z,88.10
2018-11-12T03:40:58.973Z,88.10
2018-11-12T03:43:31.049Z,88.10
2018-11-12T03:46:03.017Z,88.10
2018-11-12T03:48:35.110Z,88.00
2018-11-12T03:51:07.088Z,88.10
2018-11-12T03:53:39.312Z,88.80
2018-11-12T03:56:11.932Z,88.10
2018-11-12T03:58:44.068Z,88.00
2018-11-12T04:01:15.845Z,88.10
2018-11-12T04:03:47.599Z,88.10
2018-11-12T04:06:19.327Z,88.10
2018-11-12T04:08:51.085Z,88.10
2018-11-12T04:11:23.055Z,88.00
2018-11-12T04:13:54.977Z,88.10
2018-11-12T04:16:27.729Z,88.00
2018-11-12T04:18:59.545Z,88.10
2018-11-12T04:21:31.369Z,88.10
2018-11-12T04:24:03.296Z,88.10
2018-11-12T04:26:35.188Z,88.00
2018-11-12T04:29:07.215Z,88.00
2018-11-12T04:31:39.971Z,88.00
2018-11-12T04:34:11.781Z,88.10
2018-11-12T04:36:43.697Z,88.00
2018-11-12T04:39:15.450Z,88.10
2018-11-12T04:41:47.501Z,88.00
2018-11-12T04:44:19.433Z,88.10
2018-11-12T04:46:51.284Z,88.10
2018-11-12T04:49:23.420Z,88.10
2018-11-12T04:51:55.520Z,88.10
2018-11-12T04:54:28.386Z,88.10
2018-11-12T04:57:01.143Z,88.10
2018-11-12T04:59:33.881Z,88.10
2018-11-12T05:02:06.467Z,88.00
2018-11-12T05:04:38.370Z,88.10
2018-11-12T05:07:10.589Z,88.10
2018-11-12T05:09:42.773Z,88.10
2018-11-12T05:12:14.933Z,88.10
2018-11-12T05:14:46.965Z,88.10
2018-11-12T05:17:19.014Z,88.10
2018-11-12T05:19:51.070Z,88.20
2018-11-12T05:22:23.014Z,88.20
2018-11-12T05:24:54.840Z,88.20
2018-11-12T05:27:26.808Z,88.60
2018-11-12T05:29:58.834Z,88.50
2018-11-12T05:32:30.842Z,88.50
2018-11-12T05:35:03.069Z,88.40
2018-11-12T05:37:35.559Z,88.30
2018-11-12T05:40:09.297Z,88.40
2018-11-12T05:42:41.358Z,88.40
2018-11-12T05:45:14.148Z,88.40
2018-11-12T05:47:46.011Z,88.30
2018-11-12T05:50:21.202Z,88.40
2018-11-12T05:52:55.456Z,88.30
2018-11-12T05:55:29.562Z,88.40
2018-11-12T05:58:02.661Z,88.40
2018-11-12T06:00:36.468Z,88.40
2018-11-12T06:03:08.581Z,88.40
2018-11-12T06:05:40.479Z,88.40
2018-11-12T06:08:12.399Z,88.40
2018-11-12T06:10:44.586Z,88.40
2018-11-12T06:13:17.381Z,88.40
2018-11-12T06:15:50.136Z,88.40
2018-11-12T06:18:21.981Z,88.50
2018-11-12T06:20:53.938Z,88.50
2018-11-12T06:23:26.659Z,88.50
2018-11-12T06:25:59.427Z,88.50
2018-11-12T06:28:32.216Z,88.60
2018-11-12T06:31:04.471Z,88.40
2018-11-12T06:33:36.469Z,88.50
2018-11-12T06:36:08.652Z,88.40
2018-11-12T06:38:40.666Z,88.50
2018-11-12T06:41:12.744Z,88.40
2018-11-12T06:43:44.691Z,88.50
2018-11-12T06:46:16.741Z,88.60
2018-11-12T06:48:48.818Z,88.40
2018-11-12T06:51:20.810Z,88.60
2018-11-12T06:53:52.767Z,88.60
2018-11-12T06:56:24.918Z,88.50
2018-11-12T06:58:56.960Z,88.50
2018-11-12T07:01:29.781Z,88.60
2018-11-12T07:04:01.799Z,88.50
2018-11-12T07:06:33.947Z,88.50
2018-11-12T07:09:07.975Z,88.50
2018-11-12T07:11:40.026Z,88.50
2018-11-12T07:14:11.865Z,88.50
2018-11-12T07:16:43.759Z,88.50
2018-11-12T07:19:16.121Z,88.50
2018-11-12T07:21:48.843Z,89.40
2018-11-12T07:24:21.425Z,88.60
2018-11-12T07:26:56.469Z,88.60
2018-11-12T07:29:28.503Z,88.60
2018-11-12T07:32:00.494Z,88.60
2018-11-12T07:34:32.237Z,88.50
2018-11-12T07:37:08.103Z,88.70
2018-11-12T07:39:45.253Z,88.60
2018-11-12T07:42:17.876Z,88.60
2018-11-12T07:44:53.150Z,88.60
2018-11-12T07:47:25.773Z,88.70
2018-11-12T07:49:58.489Z,88.70
2018-11-12T07:52:30.397Z,88.70
2018-11-12T07:55:02.124Z,88.90
2018-11-12T07:57:33.946Z,88.90
2018-11-12T08:00:06.768Z,88.90
2018-11-12T08:02:38.610Z,88.80
2018-11-12T08:05:11.069Z,88.80
2018-11-12T08:07:43.640Z,89.10
2018-11-12T08:10:17.777Z,89.10
2018-11-12T08:12:49.774Z,89.00
2018-11-12T08:15:22.020Z,89.20
2018-11-12T08:17:54.006Z,89.10
2018-11-12T08:20:27.281Z,89.30
2018-11-12T08:23:00.006Z,89.30
2018-11-12T08:25:32.371Z,89.30
2018-11-12T08:28:05.158Z,89.40
2018-11-12T08:30:37.224Z,89.40
2018-11-12T08:33:09.084Z,90.00
2018-11-12T08:35:41.144Z,89.40
2018-11-12T08:38:13.196Z,89.60
2018-11-12T08:40:45.735Z,89.50
2018-11-12T08:43:18.462Z,89.60
2018-11-12T08:45:50.276Z,89.50
2018-11-12T08:48:22.094Z,89.70
2018-11-12T08:50:53.957Z,89.70
2018-11-12T08:53:25.930Z,90.20
2018-11-12T08:55:57.898Z,89.90
2018-11-12T08:58:30.853Z,89.80
2018-11-12T09:01:02.814Z,90.00
2018-11-12T09:03:35.112Z,90.00
2018-11-12T09:06:07.402Z,90.00
2018-11-12T09:08:39.568Z,90.00
2018-11-12T09:11:11.603Z,90.20
2018-11-12T09:13:44.358Z,90.20
2018-11-12T09:16:16.240Z,90.30
2018-11-12T09:18:48.249Z,90.30
2018-11-12T09:21:20.010Z,90.40
2018-11-12T09:23:51.903Z,90.30
2018-11-12T09:26:23.892Z,90.40
2018-11-12T09:28:56.048Z,90.40
2018-11-12T09:31:29.014Z,90.40
2018-11-12T09:34:00.833Z,90.70
2018-11-12T09:36:32.852Z,90.60
2018-11-12T09:39:05.867Z,90.90
2018-11-12T09:41:37.961Z,90.80
2018-11-12T09:44:10.148Z,90.90
2018-11-12T09:46:42.913Z,90.90
2018-11-12T09:49:15.902Z,90.80
2018-11-12T09:51:47.902Z,90.90
2018-11-12T09:54:20.162Z,90.90
2018-11-12T09:56:52.212Z,91.00
2018-11-12T09:59:24.019Z,90.90
2018-11-12T10:01:56.856Z,91.00
2018-11-12T10:04:29.934Z,91.00
2018-11-12T10:07:02.326Z,90.90
2018-11-12T10:09:34.500Z,90.90
2018-11-12T10:12:07.380Z,90.80
2018-11-12T10:14:38.780Z,91.20
2018-11-12T10:17:13.165Z,90.90
2018-11-12T10:19:41.346Z,91.10
2018-11-12T10:22:13.364Z,91.10
2018-11-12T10:24:47.055Z,91.10
2018-11-12T10:27:20.003Z,91.30
2018-11-12T10:29:52.260Z,91.00
2018-11-12T10:32:24.334Z,91.10
2018-11-12T10:34:56.602Z,91.30
2018-11-12T10:37:28.684Z,91.00
2018-11-12T10:40:00.737Z,91.00
2018-11-12T10:42:32.969Z,90.80
2018-11-12T10:45:05.733Z,90.90
2018-11-12T10:47:37.950Z,90.70
2018-11-12T10:50:11.859Z,90.90
2018-11-12T10:52:44.237Z,90.80
2018-11-12T10:55:18.793Z,90.90
2018-11-12T10:57:51.199Z,90.80
2018-11-12T11:00:29.193Z,90.70
2018-11-12T11:03:06.825Z,90.90
2018-11-12T11:05:40.068Z,90.70
2018-11-12T11:08:12.367Z,90.70
2018-11-12T11:10:44.295Z,90.70
2018-11-12T11:13:16.050Z,90.70
2018-11-12T11:15:47.951Z,90.60
2018-11-12T11:18:20.023Z,90.60
2018-11-12T11:20:52.723Z,90.70
2018-11-12T11:23:25.430Z,90.60
2018-11-12T11:25:57.376Z,90.50
2018-11-12T11:28:29.418Z,90.50
2018-11-12T11:31:02.398Z,90.60
2018-11-12T11:33:34.755Z,90.50
2018-11-12T11:36:06.965Z,90.50
2018-11-12T11:38:38.959Z,90.40
2018-11-12T11:41:11.248Z,90.40
2018-11-12T11:43:43.718Z,90.40
2018-11-12T11:46:15.885Z,90.40
2018-11-12T11:48:52.363Z,90.40
2018-11-12T11:51:33.035Z,90.30
2018-11-12T11:54:05.149Z,90.40
2018-11-12T11:56:38.615Z,90.40
2018-11-12T11:59:10.724Z,90.30
2018-11-12T12:01:43.780Z,90.30
2018-11-12T12:04:16.197Z,90.40
2018-11-12T12:06:48.185Z,90.40
2018-11-12T12:09:20.220Z,90.30
2018-11-12T12:11:53.052Z,90.30
2018-11-12T12:14:25.625Z,90.30
2018-11-12T12:16:57.935Z,90.30
2018-11-12T12:19:30.689Z,90.40
2018-11-12T12:22:02.917Z,90.30
2018-11-12T12:24:35.739Z,90.20
2018-11-12T12:27:08.011Z,90.20
2018-11-12T12:29:40.049Z,90.20
2018-11-12T12:32:12.194Z,90.20
2018-11-12T12:34:45.747Z,90.20
2018-11-12T12:37:19.020Z,90.30
2018-11-12T12:39:52.106Z,90.20
2018-11-12T12:42:25.203Z,90.20
2018-11-12T12:44:58.655Z,90.20
2018-11-12T12:47:32.195Z,90.10
2018-11-12T12:50:05.780Z,90.20
2018-11-12T12:52:39.028Z,90.20
2018-11-12T12:55:13.330Z,90.20
2018-11-12T12:57:47.620Z,90.20
2018-11-12T13:00:22.655Z,90.10
2018-11-12T13:02:56.048Z,90.10
2018-11-12T13:05:28.956Z,90.10
2018-11-12T13:08:02.023Z,90.10
2018-11-12T13:10:36.219Z,90.10
2018-11-12T13:13:09.267Z,90.10
2018-11-12T13:15:42.519Z,90.10
2018-11-12T13:18:15.799Z,90.10
2018-11-12T13:20:49.229Z,90.10
2018-11-12T13:23:22.592Z,90.10
2018-11-12T13:25:56.295Z,90.10
2018-11-12T13:28:29.279Z,90.10
2018-11-12T13:31:02.797Z,90.10
2018-11-12T13:33:36.477Z,90.10
2018-11-12T13:36:10.096Z,90.00
2018-11-12T13:38:44.209Z,90.00
2018-11-12T13:41:17.673Z,90.00
2018-11-12T13:43:51.052Z,90.00
2018-11-12T13:46:28.846Z,90.00
2018-11-12T13:49:02.624Z,90.00
2018-11-12T13:51:36.660Z,90.00
2018-11-12T13:54:10.522Z,90.00
2018-11-12T13:56:43.623Z,90.00
2018-11-12T13:59:17.316Z,90.00
2018-11-12T14:01:51.115Z,90.00
2018-11-12T14:04:24.198Z,90.00
2018-11-12T14:06:57.619Z,90.00
2018-11-12T14:09:31.002Z,90.00
2018-11-12T14:12:04.191Z,90.00
2018-11-12T14:14:38.100Z,90.00
2018-11-12T14:17:11.483Z,90.00
2018-11-12T14:19:45.813Z,90.00
2018-11-12T14:22:19.416Z,90.00
2018-11-12T14:24:52.990Z,89.90
2018-11-12T14:27:26.466Z,90.00
2018-11-12T14:29:59.491Z,90.00
2018-11-12T14:32:33.772Z,90.00
2018-11-12T14:35:06.233Z,89.90
2018-11-12T14:37:38.650Z,90.00
2018-11-12T14:40:12.123Z,89.90
2018-11-12T14:42:44.480Z,89.90
2018-11-12T14:45:17.988Z,90.00
2018-11-12T14:47:50.675Z,89.90
2018-11-12T14:50:22.758Z,89.90
2018-11-12T14:52:55.558Z,89.90
2018-11-12T14:55:27.766Z,89.90
2018-11-12T14:58:00.100Z,89.80
2018-11-12T15:00:32.435Z,89.90
2018-11-12T15:03:04.688Z,89.90
2018-11-12T15:05:36.856Z,89.90
2018-11-12T15:08:09.388Z,89.90
2018-11-12T15:10:41.578Z,89.70
2018-11-12T15:13:13.744Z,89.80
2018-11-12T15:15:45.740Z,89.80
2018-11-12T15:18:17.787Z,89.80
2018-11-12T15:20:50.096Z,89.80
2018-11-12T15:23:22.114Z,89.80
2018-11-12T15:25:54.290Z,89.80
2018-11-12T15:28:26.399Z,89.80
2018-11-12T15:30:58.434Z,89.80
2018-11-12T15:33:30.638Z,89.70
2018-11-12T15:36:02.602Z,89.80
2018-11-12T15:38:34.763Z,89.80
2018-11-12T15:41:07.086Z,89.80
2018-11-12T15:43:39.183Z,89.80
2018-11-12T15:46:11.231Z,89.70
2018-11-12T15:48:43.353Z,89.70
2018-11-12T15:51:15.433Z,89.70
2018-11-12T15:53:47.705Z,89.70
2018-11-12T15:56:19.874Z,89.60
2018-11-12T15:58:52.137Z,89.70
2018-11-12T16:01:24.078Z,89.60
2018-11-12T16:03:56.111Z,89.60
2018-11-12T16:06:28.504Z,89.70
2018-11-12T16:09:00.743Z,89.70
2018-11-12T16:11:32.880Z,89.60
2018-11-12T16:14:05.012Z,89.60
2018-11-12T16:16:37.580Z,89.60
2018-11-12T16:19:10.622Z,89.70
2018-11-12T16:21:44.088Z,89.70
2018-11-12T16:24:15.958Z,90.30
2018-11-12T16:26:49.281Z,90.90
2018-11-12T16:29:21.717Z,91.20
2018-11-12T16:31:53.883Z,91.50
2018-11-12T16:34:27.711Z,91.60
2018-11-12T16:36:59.832Z,91.60
2018-11-12T16:39:32.235Z,91.70
2018-11-12T16:42:04.210Z,91.70
2018-11-12T16:44:36.169Z,91.60
2018-11-12T16:47:08.326Z,91.80
2018-11-12T16:49:40.055Z,91.80
2018-11-12T16:52:12.329Z,91.80
2018-11-12T16:54:45.258Z,91.80
2018-11-12T16:57:17.255Z,91.80
2018-11-12T16:59:49.359Z,91.90
2018-11-12T17:02:22.112Z,91.80
2018-11-12T17:04:54.371Z,91.80
2018-11-12T17:07:26.517Z,91.90
2018-11-12T17:09:58.546Z,91.80
2018-11-12T17:12:30.602Z,91.80
2018-11-12T17:15:02.497Z,91.70
2018-11-12T17:17:34.592Z,91.70
2018-11-12T17:20:07.198Z,91.80
2018-11-12T17:22:39.647Z,91.70
2018-11-12T17:25:13.043Z,91.80
2018-11-12T17:27:45.314Z,91.80
2018-11-12T17:30:18.941Z,91.70
2018-11-12T17:32:51.406Z,91.70
2018-11-12T17:35:23.820Z,91.80
2018-11-12T17:37:55.735Z,91.80
2018-11-12T17:40:27.944Z,91.70
2018-11-12T17:42:59.865Z,91.70
2018-11-12T17:45:33.223Z,91.70
2018-11-12T17:48:05.016Z,91.80
2018-11-12T17:50:36.867Z,91.60
2018-11-12T17:53:09.015Z,91.70
2018-11-12T17:55:41.040Z,91.70
2018-11-12T17:58:13.630Z,91.60
2018-11-12T18:00:46.400Z,91.60
2018-11-12T18:03:18.486Z,91.60
2018-11-12T18:05:50.620Z,91.60
2018-11-12T18:08:22.817Z,91.50
2018-11-12T18:10:54.789Z,91.70
2018-11-12T18:13:27.266Z,91.50
2018-11-12T18:15:59.645Z,91.80
2018-11-12T18:18:32.248Z,91.50
2018-11-12T18:21:04.530Z,91.50
2018-11-12T18:23:36.445Z,91.50
2018-11-12T18:26:09.563Z,91.50
2018-11-12T18:28:42.697Z,91.50
2018-11-12T18:31:15.193Z,91.60
2018-11-12T18:33:47.177Z,91.50
2018-11-12T18:36:19.159Z,91.50
2018-11-12T18:38:51.241Z,91.60
2018-11-12T18:41:23.434Z,91.50
2018-11-12T18:43:55.617Z,91.40
2018-11-12T18:46:27.671Z,91.50
2018-11-12T18:48:59.920Z,91.50
2018-11-12T18:51:32.402Z,91.40
2018-11-12T18:54:04.378Z,91.50
2018-11-12T18:56:36.356Z,91.50
2018-11-12T19:02:08.048Z,91.50
2018-11-12T19:04:40.592Z,91.50
2018-11-12T19:07:13.298Z,91.50
2018-11-12T19:09:46.150Z,91.50
2018-11-12T19:12:18.356Z,91.50
2018-11-12T19:14:52.873Z,91.40
2018-11-12T19:17:25.966Z,91.40
2018-11-12T19:19:58.513Z,91.30
2018-11-12T19:22:30.545Z,91.30
2018-11-12T19:25:04.367Z,91.30
2018-11-12T19:27:37.161Z,91.30
2018-11-12T19:30:18.475Z,91.40
2018-11-12T19:32:51.583Z,91.40
2018-11-12T19:35:25.129Z,91.30
2018-11-12T19:37:57.398Z,91.40
2018-11-12T19:40:31.402Z,91.30
2018-11-12T19:43:03.787Z,91.40
2018-11-12T19:45:36.660Z,91.30
2018-11-12T19:48:09.388Z,91.30
2018-11-12T19:50:41.541Z,91.20
2018-11-12T19:53:13.885Z,91.20
2018-11-12T19:55:46.022Z,91.20
2018-11-12T19:58:18.865Z,91.20
2018-11-12T20:00:51.851Z,91.10
2018-11-12T20:03:24.044Z,91.10
2018-11-12T20:05:56.213Z,91.40
2018-11-12T20:08:30.695Z,91.10
2018-11-12T20:11:02.839Z,91.10
2018-11-12T20:13:35.963Z,91.10
2018-11-12T20:16:09.345Z,91.10
2018-11-12T20:18:41.607Z,91.00
2018-11-12T20:21:14.098Z,91.00
2018-11-12T20:23:46.473Z,91.00
2018-11-12T20:26:18.747Z,91.10
2018-11-12T20:28:50.834Z,91.00
2018-11-12T20:31:23.004Z,91.00
2018-11-12T20:33:54.876Z,91.00
2018-11-12T20:36:28.180Z,91.00
2018-11-12T20:39:01.155Z,91.00
2018-11-12T20:41:33.680Z,91.00
2018-11-12T20:44:07.609Z,91.00
2018-11-12T20:46:39.655Z,90.90
2018-11-12T20:49:11.797Z,90.90
2018-11-12T20:51:43.962Z,90.90
2018-11-12T20:54:16.745Z,90.90
2018-11-12T20:56:49.493Z,90.90
2018-11-12T20:59:23.202Z,90.90
2018-11-12T21:01:55.359Z,91.00
2018-11-12T21:04:27.699Z,90.90
2018-11-12T21:06:59.892Z,90.80
2018-11-12T21:09:32.090Z,90.80
2018-11-12T21:12:05.484Z,90.80
2018-11-12T21:14:38.034Z,90.80
2018-11-12T21:17:10.908Z,90.80
2018-11-12T21:19:43.740Z,90.70
2018-11-12T21:22:17.634Z,90.80
2018-11-12T21:24:49.736Z,90.70
2018-11-12T21:27:22.044Z,90.70
2018-11-12T21:29:54.294Z,90.70
2018-11-12T21:32:26.411Z,90.70
2018-11-12T21:34:58.381Z,90.70
2018-11-12T21:37:30.457Z,90.60
2018-11-12T21:40:02.620Z,90.70
2018-11-12T21:42:34.762Z,90.70
2018-11-12T21:45:07.402Z,90.70
2018-11-12T21:47:40.123Z,90.70
2018-11-12T21:50:14.404Z,90.60
2018-11-12T21:52:46.585Z,90.90
2018-11-12T21:55:18.717Z,90.70
2018-11-12T21:57:51.609Z,90.60
2018-11-12T22:00:25.839Z,90.60
2018-11-12T22:03:00.164Z,90.60
2018-11-12T22:05:33.019Z,90.60
2018-11-12T22:08:06.156Z,90.60
2018-11-12T22:10:38.232Z,90.60
2018-11-12T22:13:10.618Z,90.60
2018-11-12T22:15:43.431Z,90.60
2018-11-12T22:18:15.700Z,90.60
2018-11-12T22:20:47.942Z,90.60
2018-11-12T22:23:20.147Z,90.50
2018-11-12T22:25:52.108Z,90.50
2018-11-12T22:28:24.204Z,90.50
2018-11-12T22:30:56.242Z,90.50
2018-11-12T22:33:28.188Z,90.40
2018-11-12T22:36:00.192Z,90.40
2018-11-12T22:38:32.167Z,90.40
2018-11-12T22:41:04.364Z,90.40
2018-11-12T22:43:36.642Z,90.40
2018-11-12T22:46:08.618Z,90.40
2018-11-12T22:48:40.759Z,90.30
2018-11-12T22:51:12.875Z,90.30
2018-11-12T22:53:45.071Z,90.30
2018-11-12T22:56:17.267Z,90.30
2018-11-12T22:58:49.404Z,90.30
2018-11-12T23:01:21.684Z,90.40
2018-11-12T23:03:53.767Z,90.40
2018-11-12T23:06:25.925Z,90.30
2018-11-12T23:08:58.016Z,90.30
2018-11-12T23:11:30.285Z,90.40
2018-11-12T23:14:02.304Z,90.30
2018-11-12T23:16:34.871Z,90.70
2018-11-12T23:19:06.982Z,90.30
2018-11-12T23:21:39.282Z,90.30
2018-11-12T23:24:11.367Z,90.30
2018-11-12T23:26:43.312Z,90.30
2018-11-12T23:29:15.201Z,90.30
2018-11-12T23:31:47.262Z,90.30
2018-11-12T23:34:20.491Z,90.30
2018-11-12T23:36:53.350Z,90.30
2018-11-12T23:39:26.119Z,90.30
2018-11-12T23:41:58.800Z,90.30
2018-11-12T23:44:30.964Z,90.30
2018-11-12T23:47:02.919Z,90.30
2018-11-12T23:49:34.778Z,90.40
2018-11-12T23:52:06.856Z,90.40
2018-11-12T23:54:38.817Z,90.40
2018-11-12T23:57:10.769Z,90.40
2018-11-12T23:59:42.829Z,90.40
